Terminal Aerodrome Forecast
Issued by NWS Denver/Boulder, CO

Home | Current Version | Previous Version | Text Only | Print | Product List | Glossary On
Versions: 1 2 3 4 5 6 7 8 9 10 11 12 13 14 15 16 17 18 19 20 21 22 23 24 25 26 27 28 29 30 31 32 33 34 35 36 37 38 39 40 41 42 43 44 45 46 47 48 49 50
000
FTUS45 KBOU 251212 AAA
TAFDEN
TAF AMD
KDEN 251212Z 2512/2618 20007KT P6SM SKC
     FM251600 VRB05KT P6SM SKC
     FM251800 34008KT P6SM SKC
     FM260100 VRB04KT P6SM SKC
     FM260300 18007KT P6SM SKC
     FM260700 29006KT P6SM SCT100
     FM260800 35016G23KT P6SM SCT100
     FM261200 35016G23KT P6SM BKN030 BKN100=

USA.gov is the U.S. government's official web portal to all federal, state and local government web resources and services.